createdAt,value
2023-01-11T00:01:53.852Z,52.25
2023-01-11T00:04:20.592Z,52.30
2023-01-11T00:06:47.173Z,52.19
2023-01-11T00:09:13.706Z,52.23
2023-01-11T00:11:40.162Z,52.47
2023-01-11T00:14:06.717Z,52.52
2023-01-11T00:16:33.207Z,52.05
2023-01-11T00:18:59.761Z,53.22
2023-01-11T00:21:26.235Z,52.79
2023-01-11T00:23:52.689Z,53.63
2023-01-11T00:26:19.199Z,52.43
2023-01-11T00:28:48.295Z,52.40
2023-01-11T00:31:15.177Z,52.16
2023-01-11T00:33:41.739Z,52.33
2023-01-11T00:36:08.727Z,52.35
2023-01-11T00:38:35.310Z,52.91
2023-01-11T00:41:01.780Z,52.15
2023-01-11T00:43:28.263Z,52.61
2023-01-11T00:45:54.749Z,52.65
2023-01-11T00:48:21.335Z,52.18
2023-01-11T00:50:47.834Z,52.41
2023-01-11T00:53:14.354Z,53.35
2023-01-11T00:55:40.797Z,53.06
2023-01-11T00:58:07.250Z,53.02
2023-01-11T01:00:33.698Z,53.42
2023-01-11T01:03:00.169Z,53.71
2023-01-11T01:05:26.777Z,53.84
2023-01-11T01:07:53.308Z,53.78
2023-01-11T01:10:20.590Z,53.76
2023-01-11T01:12:47.725Z,53.49
2023-01-11T01:15:14.222Z,53.47
2023-01-11T01:17:40.696Z,53.42
2023-01-11T01:20:07.717Z,53.54
2023-01-11T01:22:34.582Z,53.39
2023-01-11T01:25:01.116Z,54.20
2023-01-11T01:27:27.575Z,53.88
2023-01-11T01:29:54.045Z,54.39
2023-01-11T01:32:20.560Z,54.56
2023-01-11T01:34:47.049Z,54.81
2023-01-11T01:37:13.552Z,55.10
2023-01-11T01:39:39.995Z,55.45
2023-01-11T01:42:14.167Z,55.46
2023-01-11T01:45:00.161Z,55.39
2023-01-11T01:47:47.048Z,55.49
2023-01-11T01:50:38.145Z,54.88
2023-01-11T01:53:14.080Z,55.16
2023-01-11T01:55:45.759Z,54.80
2023-01-11T01:58:17.786Z,54.62
2023-01-11T02:00:46.300Z,54.86
2023-01-11T02:03:18.852Z,54.69
2023-01-11T02:05:46.617Z,55.92
2023-01-11T02:08:35.908Z,55.42
2023-01-11T02:11:03.858Z,55.01
2023-01-11T02:13:32.125Z,54.39
2023-01-11T02:15:58.668Z,55.24
2023-01-11T02:18:25.155Z,55.60
2023-01-11T02:21:06.980Z,54.59
2023-01-11T02:23:52.240Z,54.67
2023-01-11T02:26:39.892Z,54.84
2023-01-11T02:29:24.975Z,54.45
2023-01-11T02:32:20.926Z,54.74
2023-01-11T02:35:05.257Z,54.73
2023-01-11T02:37:51.150Z,55.52
2023-01-11T02:40:40.948Z,56.05
2023-01-11T02:43:24.953Z,55.73
2023-01-11T02:46:39.793Z,56.26
2023-01-11T02:49:35.830Z,56.27
2023-01-11T02:52:25.919Z,55.73
2023-01-11T02:54:58.839Z,56.20
2023-01-11T02:57:28.424Z,55.87
2023-01-11T02:59:57.751Z,55.92
2023-01-11T03:02:25.067Z,56.21
2023-01-11T03:04:51.545Z,55.77
2023-01-11T03:08:16.319Z,55.48
2023-01-11T03:11:09.499Z,55.38
2023-01-11T03:13:54.785Z,55.22
2023-01-11T03:16:45.761Z,55.41
2023-01-11T03:19:38.407Z,55.08
2023-01-11T03:22:28.431Z,55.40
2023-01-11T03:25:23.268Z,55.07
2023-01-11T03:28:02.403Z,54.79
2023-01-11T03:30:33.721Z,54.95
2023-01-11T03:33:17.724Z,54.70
2023-01-11T03:35:56.014Z,54.45
2023-01-11T03:38:36.948Z,54.94
2023-01-11T03:41:20.297Z,55.01
2023-01-11T03:43:52.592Z,55.18
2023-01-11T03:46:25.829Z,55.32
2023-01-11T03:49:02.457Z,55.79
2023-01-11T03:51:35.022Z,55.62
2023-01-11T03:54:06.970Z,55.97
2023-01-11T03:56:47.037Z,56.11
2023-01-11T03:59:13.911Z,56.87
2023-01-11T04:01:40.368Z,56.61
2023-01-11T04:04:06.964Z,57.21
2023-01-11T04:06:37.005Z,57.01
2023-01-11T04:09:04.668Z,57.95
2023-01-11T04:11:31.139Z,58.31
2023-01-11T04:13:57.629Z,58.27
2023-01-11T04:16:24.119Z,58.50
2023-01-11T04:18:50.595Z,59.40
2023-01-11T04:21:17.080Z,59.16
2023-01-11T04:23:43.596Z,59.00
2023-01-11T04:26:10.218Z,58.51
2023-01-11T04:28:36.772Z,58.91
2023-01-11T04:31:03.430Z,58.87
2023-01-11T04:33:29.946Z,58.64
2023-01-11T04:35:56.510Z,57.99
2023-01-11T04:38:22.976Z,57.67
2023-01-11T04:40:49.443Z,57.42
2023-01-11T04:43:16.020Z,56.92
2023-01-11T04:45:42.511Z,57.20
2023-01-11T04:48:09.007Z,56.95
2023-01-11T04:50:35.547Z,56.48
2023-01-11T04:53:02.056Z,56.51
2023-01-11T04:55:28.511Z,56.13
2023-01-11T04:57:54.979Z,56.12
2023-01-11T05:00:21.641Z,55.85
2023-01-11T05:02:48.109Z,55.76
2023-01-11T05:05:14.694Z,55.56
2023-01-11T05:07:41.170Z,55.25
2023-01-11T05:10:08.296Z,55.31
2023-01-11T05:12:34.771Z,54.62
2023-01-11T05:15:01.327Z,54.33
2023-01-11T05:17:27.893Z,54.76
2023-01-11T05:19:54.388Z,54.44
2023-01-11T05:22:20.875Z,54.41
2023-01-11T05:24:47.384Z,55.44
2023-01-11T05:27:13.893Z,55.72
2023-01-11T05:29:40.503Z,55.17
2023-01-11T05:32:06.972Z,55.07
2023-01-11T05:34:33.669Z,55.56
2023-01-11T05:37:00.139Z,55.79
2023-01-11T05:39:26.653Z,55.22
2023-01-11T05:41:53.151Z,55.75
2023-01-11T05:44:19.624Z,55.34
2023-01-11T05:46:46.309Z,53.44
2023-01-11T05:49:14.361Z,53.54
2023-01-11T05:51:42.773Z,53.85
2023-01-11T05:54:13.323Z,54.16
2023-01-11T05:56:40.973Z,54.12
2023-01-11T05:59:07.464Z,53.66
2023-01-11T06:01:34.772Z,53.87
2023-01-11T06:04:01.322Z,54.00
2023-01-11T06:06:28.036Z,54.01
2023-01-11T06:08:54.521Z,54.30
2023-01-11T06:11:20.979Z,54.12
2023-01-11T06:13:47.481Z,54.78
2023-01-11T06:16:19.681Z,54.50
2023-01-11T06:18:51.848Z,54.09
2023-01-11T06:21:18.776Z,54.04
2023-01-11T06:23:48.046Z,54.36
2023-01-11T06:26:16.984Z,54.27
2023-01-11T06:28:44.490Z,54.71
2023-01-11T06:31:11.678Z,56.47
2023-01-11T06:33:38.326Z,56.77
2023-01-11T06:36:08.157Z,57.30
2023-01-11T06:38:35.268Z,57.19
2023-01-11T06:41:03.962Z,57.44
2023-01-11T06:43:31.650Z,57.52
2023-01-11T06:45:58.684Z,57.28
2023-01-11T06:48:26.452Z,57.02
2023-01-11T06:50:55.818Z,57.59
2023-01-11T06:53:27.446Z,57.35
2023-01-11T06:55:57.394Z,57.21
2023-01-11T06:58:25.786Z,56.92
2023-01-11T07:00:54.821Z,57.15
2023-01-11T07:03:21.616Z,57.43
2023-01-11T07:05:48.192Z,56.40
2023-01-11T07:08:15.066Z,56.06
2023-01-11T07:10:41.890Z,55.59
2023-01-11T07:13:08.451Z,55.78
2023-01-11T07:15:34.985Z,56.26
2023-01-11T07:18:01.575Z,55.72
2023-01-11T07:20:28.403Z,55.43
2023-01-11T07:23:00.042Z,55.51
2023-01-11T07:25:29.894Z,55.37
2023-01-11T07:28:02.494Z,55.11
2023-01-11T07:30:31.610Z,54.70
2023-01-11T07:32:59.474Z,54.79
2023-01-11T07:35:28.889Z,54.88
2023-01-11T07:37:55.881Z,54.50
2023-01-11T07:40:22.448Z,55.25
2023-01-11T07:42:54.174Z,54.26
2023-01-11T07:45:20.795Z,54.27
2023-01-11T07:47:50.327Z,54.12
2023-01-11T07:50:16.856Z,54.38
2023-01-11T07:52:47.561Z,54.15
2023-01-11T07:55:14.632Z,54.09
2023-01-11T07:57:41.083Z,54.16
2023-01-11T08:00:08.537Z,54.09
2023-01-11T08:02:35.126Z,54.94
2023-01-11T08:05:03.183Z,55.41
2023-01-11T08:07:29.897Z,55.46
2023-01-11T08:09:56.334Z,55.64
2023-01-11T08:12:22.828Z,56.32
2023-01-11T08:14:49.287Z,58.12
2023-01-11T08:17:16.796Z,58.30
2023-01-11T08:19:43.611Z,58.13
2023-01-11T08:22:10.472Z,57.75
2023-01-11T08:24:37.030Z,57.58
2023-01-11T08:27:03.954Z,57.40
2023-01-11T08:29:30.944Z,57.15
2023-01-11T08:31:57.515Z,56.61
2023-01-11T08:34:24.051Z,56.17
2023-01-11T08:36:50.545Z,56.01
2023-01-11T08:39:17.035Z,55.70
2023-01-11T08:41:44.402Z,55.46
2023-01-11T08:44:11.840Z,56.92
2023-01-11T08:46:38.719Z,55.82
2023-01-11T08:49:05.709Z,56.74
2023-01-11T08:51:32.635Z,56.37
2023-01-11T08:53:59.224Z,55.79
2023-01-11T08:56:25.861Z,56.20
2023-01-11T08:58:52.346Z,56.20
2023-01-11T09:01:18.922Z,56.03
2023-01-11T09:03:45.378Z,55.87
2023-01-11T09:06:11.907Z,55.74
2023-01-11T09:08:38.474Z,55.93
2023-01-11T09:11:05.134Z,56.00
2023-01-11T09:13:31.719Z,55.73
2023-01-11T09:15:58.532Z,55.36
2023-01-11T09:18:25.072Z,56.08
2023-01-11T09:20:51.582Z,55.48
2023-01-11T09:23:18.149Z,55.24
2023-01-11T09:25:44.683Z,54.89
2023-01-11T09:28:11.245Z,55.32
2023-01-11T09:30:37.745Z,55.47
2023-01-11T09:33:04.230Z,54.90
2023-01-11T09:35:30.728Z,54.45
2023-01-11T09:37:57.254Z,53.59
2023-01-11T09:40:51.557Z,53.55
2023-01-11T09:43:24.713Z,52.71
2023-01-11T09:45:52.135Z,52.25
2023-01-11T09:48:27.304Z,52.46
2023-01-11T09:50:54.998Z,51.95
2023-01-11T09:53:26.606Z,52.04
2023-01-11T09:55:55.308Z,51.47
2023-01-11T09:58:50.897Z,51.79
2023-01-11T10:01:31.687Z,53.00
2023-01-11T10:04:16.995Z,53.38
2023-01-11T10:07:11.559Z,53.64
2023-01-11T10:18:29.331Z,52.99
2023-01-11T10:19:40.845Z,53.38
2023-01-11T10:22:21.846Z,53.01
2023-01-11T10:25:11.387Z,52.50
2023-01-11T10:27:40.818Z,53.38
2023-01-11T10:30:31.628Z,53.25
2023-01-11T10:33:05.778Z,54.13
2023-01-11T10:35:43.666Z,54.07
2023-01-11T10:38:31.258Z,53.91
2023-01-11T10:41:06.389Z,53.57
2023-01-11T10:43:41.235Z,54.12
2023-01-11T10:46:15.373Z,54.08
2023-01-11T10:48:44.150Z,54.79
2023-01-11T10:51:28.627Z,55.12
2023-01-11T10:54:09.152Z,55.60
2023-01-11T10:57:02.701Z,55.47
2023-01-11T10:59:56.117Z,55.12
2023-01-11T11:02:55.160Z,55.32
2023-01-11T11:05:33.783Z,56.28
2023-01-11T11:08:26.345Z,56.75
2023-01-11T11:11:05.913Z,57.30
2023-01-11T11:13:58.582Z,57.97
2023-01-11T11:16:43.998Z,58.29
2023-01-11T11:19:17.033Z,57.86
2023-01-11T11:21:43.885Z,58.29
2023-01-11T11:24:24.180Z,59.80
2023-01-11T11:27:02.832Z,58.97
2023-01-11T11:29:29.345Z,59.67
2023-01-11T11:31:59.729Z,60.76
2023-01-11T11:34:28.147Z,60.53
2023-01-11T11:36:59.233Z,60.90
2023-01-11T11:39:30.221Z,61.78
2023-01-11T11:42:05.747Z,62.21
2023-01-11T11:44:32.445Z,62.79
2023-01-11T11:47:04.962Z,64.04
2023-01-11T11:49:33.659Z,64.14
2023-01-11T11:52:03.846Z,64.49
2023-01-11T11:54:41.905Z,64.39
2023-01-11T11:57:27.315Z,65.62
2023-01-11T12:00:03.747Z,67.01
2023-01-11T12:02:33.916Z,67.42
2023-01-11T12:05:08.748Z,68.92
2023-01-11T12:07:54.920Z,67.47
2023-01-11T12:10:27.697Z,68.08
2023-01-11T12:13:00.318Z,68.23
2023-01-11T12:15:31.732Z,68.67
2023-01-11T12:18:22.994Z,68.88
2023-01-11T12:20:49.658Z,68.31
2023-01-11T12:23:18.021Z,69.64
2023-01-11T12:26:00.674Z,71.08
2023-01-11T12:29:00.932Z,71.13
2023-01-11T12:32:10.063Z,71.86
2023-01-11T12:34:53.999Z,72.09
2023-01-11T12:37:56.479Z,72.51
2023-01-11T12:40:32.840Z,72.15
2023-01-11T12:43:17.853Z,72.05
2023-01-11T12:46:02.775Z,71.75
2023-01-11T12:48:50.784Z,71.56
2023-01-11T12:51:35.799Z,72.31
2023-01-11T12:54:33.039Z,72.40
2023-01-11T12:57:52.418Z,73.21
2023-01-11T13:00:34.504Z,73.29
2023-01-11T13:03:15.622Z,72.86
2023-01-11T13:06:11.585Z,73.19
2023-01-11T13:08:38.024Z,72.67
2023-01-11T13:11:10.335Z,72.21
2023-01-11T13:13:57.499Z,72.28
2023-01-11T13:16:33.552Z,71.51
2023-01-11T13:19:10.665Z,72.50
2023-01-11T13:21:48.671Z,72.06
2023-01-11T13:24:23.391Z,73.54
2023-01-11T13:26:51.506Z,74.61
2023-01-11T13:29:39.750Z,74.93
2023-01-11T13:32:23.683Z,75.85
2023-01-11T13:34:57.193Z,73.65
2023-01-11T13:37:32.811Z,73.12
2023-01-11T13:40:16.191Z,72.83
2023-01-11T13:42:50.490Z,74.42
2023-01-11T13:45:16.917Z,73.98
2023-01-11T13:48:13.089Z,73.33
2023-01-11T13:51:14.054Z,73.45
2023-01-11T13:54:11.745Z,72.67
2023-01-11T13:56:42.763Z,72.14
2023-01-11T13:59:34.382Z,72.47
2023-01-11T14:02:08.890Z,73.02
2023-01-11T14:05:15.112Z,73.15
2023-01-11T14:08:24.379Z,72.91
2023-01-11T14:11:05.919Z,73.12
2023-01-11T14:14:13.867Z,73.33
2023-01-11T14:16:49.276Z,72.69
2023-01-11T14:19:41.834Z,73.34
2023-01-11T14:22:29.020Z,73.50
2023-01-11T14:25:08.524Z,73.83
2023-01-11T14:27:58.878Z,74.57
2023-01-11T14:31:13.170Z,74.21
2023-01-11T14:34:03.467Z,74.54
2023-01-11T14:37:07.466Z,74.37
2023-01-11T14:40:00.240Z,74.27
2023-01-11T14:42:33.468Z,74.42
2023-01-11T14:45:14.759Z,74.07
2023-01-11T14:48:10.362Z,74.47
2023-01-11T14:50:58.415Z,73.75
2023-01-11T14:53:36.440Z,73.77
2023-01-11T14:56:02.973Z,74.25
2023-01-11T14:58:31.978Z,74.97
2023-01-11T15:00:58.407Z,74.31
2023-01-11T15:03:39.561Z,75.46
2023-01-11T15:06:13.484Z,75.55
2023-01-11T15:08:49.728Z,75.71
2023-01-11T15:11:36.312Z,75.93
2023-01-11T15:14:27.062Z,76.27
2023-01-11T15:16:59.843Z,75.72
2023-01-11T15:19:34.049Z,75.79
2023-01-11T15:22:04.333Z,76.23
2023-01-11T15:24:35.434Z,75.07
2023-01-11T15:27:02.829Z,75.50
2023-01-11T15:29:41.235Z,75.59
2023-01-11T15:32:16.885Z,75.43
2023-01-11T15:34:47.826Z,75.86
2023-01-11T15:37:28.512Z,75.95
2023-01-11T15:40:01.455Z,76.22
2023-01-11T15:42:59.949Z,76.00
2023-01-11T15:45:51.205Z,75.57
2023-01-11T15:48:41.759Z,74.48
2023-01-11T15:51:23.431Z,74.39
2023-01-11T15:54:00.884Z,74.79
2023-01-11T15:56:49.162Z,75.65
2023-01-11T15:59:37.159Z,75.26
2023-01-11T16:02:12.598Z,75.22
2023-01-11T16:04:55.330Z,75.16
2023-01-11T16:07:43.642Z,75.33
2023-01-11T16:10:31.117Z,75.13
2023-01-11T16:13:15.998Z,75.10
2023-01-11T16:16:01.808Z,75.33
2023-01-11T16:18:38.935Z,75.47
2023-01-11T16:21:14.196Z,75.51
2023-01-11T16:23:41.088Z,75.63
2023-01-11T16:26:08.545Z,75.60
2023-01-11T16:28:35.278Z,75.78
2023-01-11T16:31:04.717Z,76.31
2023-01-11T16:33:33.536Z,75.72
2023-01-11T16:36:07.794Z,75.88
2023-01-11T16:38:42.337Z,76.40
2023-01-11T16:41:13.893Z,76.04
2023-01-11T16:43:49.332Z,76.87
2023-01-11T16:46:57.172Z,77.26
2023-01-11T16:49:23.801Z,77.85
2023-01-11T16:51:50.250Z,78.75
2023-01-11T16:54:25.175Z,78.63
2023-01-11T16:56:53.233Z,78.29
2023-01-11T16:59:26.384Z,78.11
2023-01-11T17:01:57.030Z,77.91
2023-01-11T17:04:35.717Z,81.30
2023-01-11T17:07:20.346Z,82.93
2023-01-11T17:09:46.836Z,82.59
2023-01-11T17:12:21.108Z,81.68
2023-01-11T17:14:58.076Z,82.73
2023-01-11T17:17:25.625Z,81.77
2023-01-11T17:19:53.245Z,81.27
2023-01-11T17:22:21.435Z,82.11
2023-01-11T17:24:52.821Z,85.38
2023-01-11T17:27:25.555Z,85.66
2023-01-11T17:29:55.786Z,85.18
2023-01-11T17:32:42.512Z,84.99
2023-01-11T17:35:24.679Z,83.22
2023-01-11T17:37:55.364Z,81.68
2023-01-11T17:40:38.578Z,81.67
2023-01-11T17:43:15.108Z,81.32
2023-01-11T17:45:45.021Z,81.49
2023-01-11T17:48:14.291Z,80.62
2023-01-11T17:50:48.446Z,81.21
2023-01-11T17:53:21.658Z,80.70
2023-01-11T17:55:51.186Z,80.20
2023-01-11T17:58:19.929Z,80.27
2023-01-11T18:01:04.995Z,80.22
2023-01-11T18:03:54.179Z,78.69
2023-01-11T18:06:36.731Z,78.78
2023-01-11T18:09:07.082Z,78.23
2023-01-11T18:11:40.634Z,78.57
2023-01-11T18:14:28.026Z,77.29
2023-01-11T18:17:05.812Z,76.83
2023-01-11T18:19:40.910Z,76.86
2023-01-11T18:22:36.401Z,76.69
2023-01-11T18:25:24.826Z,77.17
2023-01-11T18:27:51.897Z,77.37
2023-01-11T18:30:30.715Z,77.19
2023-01-11T18:32:59.184Z,77.40
2023-01-11T18:35:25.956Z,77.53
2023-01-11T18:37:52.441Z,77.32
2023-01-11T18:40:19.485Z,76.35
2023-01-11T18:42:50.174Z,76.33
2023-01-11T18:45:17.283Z,76.56
2023-01-11T18:47:44.319Z,77.09
2023-01-11T18:50:13.460Z,78.22
2023-01-11T18:52:40.048Z,78.04
2023-01-11T18:55:10.675Z,77.55
2023-01-11T18:57:37.176Z,77.35
2023-01-11T19:00:03.972Z,76.76
2023-01-11T19:02:42.537Z,76.37
2023-01-11T19:05:15.188Z,79.32
2023-01-11T19:07:41.678Z,79.21
2023-01-11T19:10:08.702Z,78.54
2023-01-11T19:12:35.207Z,79.69
2023-01-11T19:15:01.757Z,79.56
2023-01-11T19:17:28.571Z,79.16
2023-01-11T19:19:55.063Z,79.88
2023-01-11T19:22:24.527Z,79.09
2023-01-11T19:24:53.357Z,80.19
2023-01-11T19:27:19.801Z,79.58
2023-01-11T19:29:46.508Z,79.34
2023-01-11T19:32:13.008Z,80.44
2023-01-11T19:34:39.465Z,80.46
2023-01-11T19:37:05.977Z,81.32
2023-01-11T19:39:32.592Z,81.71
2023-01-11T19:41:59.121Z,80.82
2023-01-11T19:44:29.704Z,80.72
2023-01-11T19:47:10.402Z,80.93
2023-01-11T19:49:39.256Z,80.22
2023-01-11T19:52:05.910Z,79.81
2023-01-11T19:54:32.406Z,83.44
2023-01-11T19:56:58.896Z,81.52
2023-01-11T19:59:25.466Z,80.45
2023-01-11T20:01:52.017Z,79.84
2023-01-11T20:04:18.560Z,79.65
2023-01-11T20:06:45.445Z,80.21
2023-01-11T20:09:12.101Z,79.01
2023-01-11T20:11:38.574Z,78.94
2023-01-11T20:14:05.870Z,79.06
2023-01-11T20:16:32.360Z,79.32
2023-01-11T20:18:58.950Z,81.78
2023-01-11T20:21:28.405Z,82.39
2023-01-11T20:23:55.715Z,83.23
2023-01-11T20:26:22.180Z,82.73
2023-01-11T20:28:54.904Z,82.01
2023-01-11T20:31:22.625Z,80.76
2023-01-11T20:33:49.122Z,82.67
2023-01-11T20:36:17.711Z,81.57
2023-01-11T20:38:45.920Z,80.57
2023-01-11T20:41:17.500Z,79.88
2023-01-11T20:43:44.001Z,82.18
2023-01-11T20:46:10.497Z,80.34
2023-01-11T20:48:37.004Z,82.96
2023-01-11T20:51:03.648Z,83.08
2023-01-11T20:53:30.136Z,84.32
2023-01-11T20:55:56.612Z,84.10
2023-01-11T20:58:23.102Z,83.48
2023-01-11T21:00:49.557Z,83.38
2023-01-11T21:03:16.081Z,83.81
2023-01-11T21:05:42.551Z,83.12
2023-01-11T21:08:09.062Z,83.37
2023-01-11T21:10:35.638Z,83.35
2023-01-11T21:13:02.116Z,83.98
2023-01-11T21:15:28.606Z,83.41
2023-01-11T21:17:55.081Z,82.06
2023-01-11T21:20:21.572Z,85.01
2023-01-11T21:22:48.047Z,84.70
2023-01-11T21:25:14.589Z,82.50
2023-01-11T21:27:41.089Z,83.09
2023-01-11T21:30:08.235Z,82.21
2023-01-11T21:32:34.685Z,80.97
2023-01-11T21:35:01.198Z,83.27
2023-01-11T21:37:27.670Z,82.36
2023-01-11T21:39:54.108Z,82.17
2023-01-11T21:42:20.589Z,82.51
2023-01-11T21:44:47.087Z,83.46
2023-01-11T21:47:13.576Z,82.97
2023-01-11T21:49:41.118Z,82.93
2023-01-11T21:52:07.605Z,82.37
2023-01-11T21:54:34.230Z,82.47
2023-01-11T21:57:00.737Z,83.69
2023-01-11T21:59:27.255Z,83.48
2023-01-11T22:01:53.767Z,83.86
2023-01-11T22:04:21.180Z,84.30
2023-01-11T22:06:49.004Z,84.98
2023-01-11T22:09:15.507Z,84.63
2023-01-11T22:11:41.994Z,84.82
2023-01-11T22:14:08.896Z,83.39
2023-01-11T22:16:37.073Z,82.70
2023-01-11T22:19:05.309Z,81.61
2023-01-11T22:21:31.781Z,80.47
2023-01-11T22:23:59.583Z,80.11
2023-01-11T22:26:27.630Z,79.05
2023-01-11T22:28:55.700Z,79.13
2023-01-11T22:31:22.784Z,77.80
2023-01-11T22:33:49.305Z,77.96
2023-01-11T22:36:16.000Z,77.12
2023-01-11T22:38:42.543Z,76.98
2023-01-11T22:41:09.733Z,76.54
2023-01-11T22:43:36.531Z,75.81
2023-01-11T22:46:03.056Z,75.95
2023-01-11T22:48:29.755Z,75.79
2023-01-11T22:50:56.222Z,75.51
2023-01-11T22:53:22.707Z,76.22
2023-01-11T22:55:49.419Z,76.70
2023-01-11T22:58:15.877Z,75.86
2023-01-11T23:00:42.331Z,75.58
2023-01-11T23:03:09.024Z,75.74
2023-01-11T23:05:35.560Z,74.25
2023-01-11T23:08:02.147Z,73.38
2023-01-11T23:10:28.638Z,73.73
2023-01-11T23:12:55.102Z,73.34
2023-01-11T23:15:21.554Z,73.97
2023-01-11T23:17:48.045Z,75.88
2023-01-11T23:20:14.509Z,74.37
2023-01-11T23:22:40.991Z,75.41
2023-01-11T23:25:07.936Z,75.21
2023-01-11T23:27:34.398Z,76.33
2023-01-11T23:30:00.878Z,76.62
2023-01-11T23:32:27.359Z,76.01
2023-01-11T23:34:53.809Z,75.96
2023-01-11T23:37:20.606Z,75.11
2023-01-11T23:39:47.065Z,74.00
2023-01-11T23:42:13.538Z,73.40
2023-01-11T23:44:40.004Z,73.08
2023-01-11T23:47:06.495Z,72.22
2023-01-11T23:49:33.232Z,73.27
2023-01-11T23:52:00.125Z,72.37
2023-01-11T23:54:32.328Z,71.71
2023-01-11T23:57:00.944Z,70.84
2023-01-11T23:59:27.762Z,70.91
